OIII/THR METAR and TAF weather

Enter ICAO airport designator
Station Type Date Time Source
OIII METAR 2022/08/13 12:30 UTC NOAA

OIII 131230Z 18006KT 9999 FEW040 35/M03 Q1011 A2986


Station Type Date Time Source
OIII Decoded METAR 2022/08/13 12:30 UTC NOAA

Tehran-Mehrabad, Iran (OIII) 35-41N 051-21E 1191M
Aug 13, 2022 - 08:30 AM EDT / 2022.08.13 1230 UTC
Wind: from the S (180 degrees) at 7 MPH (6 KT):0
Visibility: greater than 7 mile(s):0
Sky conditions: mostly clear
Temperature: 95 F (35 C)
Dew Point: 26 F (-3 C)
Relative Humidity: 8%
Pressure (altimeter): 29.86 in. Hg (1011 hPa)
ob: OIII 131230Z 18006KT 9999 FEW040 35/M03 Q1011 A2986
cycle: 12

Station Type Date Time Source
OIII TAF 2022/08/13 12:15 UTC NOAA

TAF OIII 131100Z 1312/1418 20006KT 7000 NSC
TEMPO 1312/1314 20016KT
TEMPO 1409/1415 20016KT FEW035CB SCT040 BKN100

Example: see airport list